KSDY

Sidney-Richland Regional Airport

Sidney, Montana, USA
METAR KSDY 220423Z AUTO 31003KT 10SM BKN016 M10/M12 A3005 RMK AO2 FZRANO
Observed Flight Rules
Jan-22 @ 04:23 UTC (15 minutes ago) Marginal Visual Flight Rules
Wind Visibility Clouds
310° at 3 knots 10 miles
  • Broken at 1,600' AGL
Temperatures Readings
Current -10°C / 14°F
Dewpoint -12°C / 10°F
Humidity 85%
Altimeter 30.05" Hg
Pressure 1017.62 hPa
Elevation 605
METAR KSDY 220423Z AUTO 31003KT 10SM BKN016 M10/M12 A3005 RMK AO2 FZRANO
Observed Flight Rules
Jan-22 @ 04:23 UTC
(15 minutes ago)
MVFR
Wind Visibility
310° at 3 knots 10 miles
Clouds
  • Broken at 1,600' AGL
Temperature Dewpoint
-10°C / 14°F -12°C / 10°F
Humidity Altimeter Pressure
85% 30.05" Hg 1017.62 hPa